Time;durP1;ratioP1;P1;durP2;ratioP2;P2;SDS_P1;SDS_P2;PMS_P1;PMS_P2;Temp;Humidity;BMP_temperature;BMP_pressure;BME280_temperature;BME280_humidity;BME280_pressure;Samples;Min_cycle;Max_cycle;Signal;HPM_P1;HPM_P2
2023/07/10 00:00:41;;;;;;;5.57;2.13;;;22.60;90.20;;;;;;4247225;27;20123;-53
2023/07/10 00:02:43;;;;;;;3.72;2.17;;;22.70;90.40;;;;;;4247719;27;20118;-53
2023/07/10 00:04:47;;;;;;;6.13;2.60;;;22.60;90.00;;;;;;4248370;27;20383;-55
2023/07/10 00:06:49;;;;;;;8.55;2.92;;;22.70;90.00;;;;;;4248261;27;20047;-53
2023/07/10 00:08:51;;;;;;;3.90;2.55;;;22.70;89.90;;;;;;4248329;27;20542;-53
2023/07/10 00:10:53;;;;;;;4.95;2.55;;;22.70;90.20;;;;;;4247312;27;20039;-53
2023/07/10 00:12:55;;;;;;;7.50;2.50;;;22.70;90.00;;;;;;4247863;27;20043;-50
2023/07/10 00:14:58;;;;;;;4.57;2.38;;;22.70;90.20;;;;;;4247897;27;20348;-50
2023/07/10 00:17:00;;;;;;;6.55;3.08;;;22.60;90.20;;;;;;4247890;27;20100;-51
2023/07/10 00:19:10;;;;;;;6.85;3.15;;;22.60;90.20;;;;;;4247180;27;20073;-51
2023/07/10 00:21:13;;;;;;;3.65;2.25;;;22.60;90.40;;;;;;4247577;27;20039;-50
2023/07/10 00:23:16;;;;;;;9.18;2.72;;;22.60;90.80;;;;;;4247817;27;20074;-51
2023/07/10 00:25:19;;;;;;;4.55;2.20;;;22.50;90.40;;;;;;4247441;27;20089;-51
2023/07/10 00:27:21;;;;;;;5.63;2.50;;;22.60;90.40;;;;;;4229775;28;20098;-51
2023/07/10 00:29:26;;;;;;;6.78;2.50;;;22.60;90.20;;;;;;4246855;27;20054;-50
2023/07/10 00:31:28;;;;;;;5.90;2.20;;;22.50;90.20;;;;;;4247577;27;20518;-50
2023/07/10 00:33:30;;;;;;;3.13;2.25;;;22.50;90.20;;;;;;4247949;27;20035;-50
2023/07/10 00:35:32;;;;;;;5.25;2.60;;;22.50;90.30;;;;;;4247763;27;20069;-51
2023/07/10 00:37:36;;;;;;;6.28;2.53;;;22.40;90.20;;;;;;4247868;27;20045;-50
2023/07/10 00:39:38;;;;;;;7.40;2.72;;;22.50;90.20;;;;;;4246706;27;20044;-51
2023/07/10 00:41:42;;;;;;;7.55;2.72;;;22.40;90.20;;;;;;4247599;27;20050;-53
2023/07/10 00:43:47;;;;;;;8.97;3.20;;;22.50;90.30;;;;;;4247698;27;20741;-53
2023/07/10 00:45:53;;;;;;;6.85;2.83;;;22.40;90.40;;;;;;4229402;28;20123;-53
2023/07/10 00:48:04;;;;;;;6.20;2.65;;;22.40;90.50;;;;;;4247503;27;20055;-53
2023/07/10 00:50:13;;;;;;;6.82;2.65;;;22.40;90.80;;;;;;4246634;27;20447;-53
2023/07/10 00:52:20;;;;;;;6.95;3.13;;;22.30;91.00;;;;;;4247532;27;20134;-53
2023/07/10 00:54:29;;;;;;;4.35;2.47;;;22.30;91.20;;;;;;4247736;27;20047;-54
2023/07/10 00:56:39;;;;;;;4.88;2.33;;;22.30;91.50;;;;;;4229606;28;20097;-53
2023/07/10 00:58:44;;;;;;;4.18;2.55;;;22.30;91.70;;;;;;4247551;28;20562;-53
2023/07/10 01:00:59;;;;;;;;;;;22.20;91.70;;;;;;4246545;28;20051;-53
2023/07/10 01:03:01;;;;;;;5.90;2.47;;;22.20;92.00;;;;;;4247575;28;20382;-53
2023/07/10 01:05:04;;;;;;;4.97;2.28;;;22.10;92.10;;;;;;4247440;28;20047;-54
2023/07/10 01:07:07;;;;;;;5.00;2.58;;;22.00;92.10;;;;;;4247162;27;20043;-53
2023/07/10 01:09:09;;;;;;;5.50;3.10;;;22.00;92.20;;;;;;4246449;28;20505;-53
2023/07/10 01:11:12;;;;;;;5.20;3.08;;;22.00;92.20;;;;;;4247545;28;20069;-53
2023/07/10 01:13:14;;;;;;;4.60;2.85;;;22.00;92.20;;;;;;4247354;28;20047;-54
2023/07/10 01:15:17;;;;;;;6.45;2.67;;;22.00;92.20;;;;;;4247082;28;20043;-53
2023/07/10 01:17:19;;;;;;;7.88;3.35;;;22.00;92.40;;;;;;4247576;28;20053;-54
2023/07/10 01:19:23;;;;;;;5.82;2.97;;;22.00;92.40;;;;;;4246270;28;20134;-54
2023/07/10 01:21:30;;;;;;;6.97;3.28;;;21.90;92.50;;;;;;4247106;27;20107;-54
2023/07/10 01:23:37;;;;;;;5.78;3.33;;;22.00;92.60;;;;;;4247491;28;20054;-53
2023/07/10 01:25:43;;;;;;;4.32;2.67;;;22.00;92.50;;;;;;4247561;28;20047;-53
2023/07/10 01:27:45;;;;;;;4.90;2.95;;;21.90;92.50;;;;;;4247354;28;20138;-53
2023/07/10 01:29:56;;;;;;;4.93;2.50;;;21.90;92.60;;;;;;4246078;28;20054;-53
2023/07/10 01:31:58;;;;;;;5.85;2.90;;;21.90;92.60;;;;;;4247314;28;20501;-54
2023/07/10 01:34:04;;;;;;;6.25;3.10;;;21.90;92.50;;;;;;4247248;28;20049;-51
2023/07/10 01:36:09;;;;;;;6.78;2.97;;;21.90;92.40;;;;;;4247405;28;20130;-51
2023/07/10 01:38:14;;;;;;;3.97;2.65;;;21.90;92.40;;;;;;4249072;27;20039;-51
2023/07/10 01:40:24;;;;;;;6.68;2.80;;;21.90;92.50;;;;;;4249675;27;20446;-53
2023/07/10 01:42:26;;;;;;;5.13;2.80;;;21.90;92.70;;;;;;4250411;27;20047;-53
2023/07/10 01:44:30;;;;;;;7.22;3.05;;;21.90;92.90;;;;;;4250284;27;20122;-53
2023/07/10 01:46:32;;;;;;;6.63;2.80;;;21.90;92.90;;;;;;4249357;27;20054;-55
2023/07/10 01:48:34;;;;;;;8.32;3.30;;;21.90;93.10;;;;;;4250104;27;20043;-53
2023/07/10 01:50:37;;;;;;;5.35;2.70;;;21.90;93.10;;;;;;4249516;27;20039;-51
2023/07/10 01:52:39;;;;;;;4.75;2.70;;;21.90;93.20;;;;;;4250398;27;20063;-52
2023/07/10 01:54:43;;;;;;;5.20;2.80;;;21.90;93.30;;;;;;4250136;27;20046;-54
2023/07/10 01:56:46;;;;;;;5.75;2.67;;;21.90;93.20;;;;;;4250215;27;20050;-50
2023/07/10 01:58:48;;;;;;;5.70;2.45;;;21.80;93.10;;;;;;4249803;27;20096;-50
2023/07/10 02:00:50;;;;;;;3.95;2.22;;;21.80;93.00;;;;;;4249141;27;20402;-53
2023/07/10 02:02:52;;;;;;;7.40;2.55;;;21.80;93.30;;;;;;4250357;27;20062;-53
2023/07/10 02:04:54;;;;;;;2.85;1.83;;;21.80;93.00;;;;;;4250224;27;20085;-53
2023/07/10 02:06:56;;;;;;;5.03;2.05;;;21.80;93.10;;;;;;4249970;27;20047;-53
2023/07/10 02:08:58;;;;;;;4.18;2.00;;;21.80;93.20;;;;;;4249975;27;20051;-53
2023/07/10 02:11:02;;;;;;;7.90;2.55;;;21.80;93.20;;;;;;4249102;27;20513;-53
2023/07/10 02:13:04;;;;;;;4.82;2.40;;;21.70;93.30;;;;;;4249700;27;20067;-53
2023/07/10 02:15:08;;;;;;;6.15;2.58;;;21.70;93.40;;;;;;4231624;28;20102;-53
2023/07/10 02:17:10;;;;;;;5.95;2.58;;;21.70;93.50;;;;;;4250105;27;20053;-53
2023/07/10 02:19:12;;;;;;;6.88;2.78;;;21.70;93.60;;;;;;4249787;27;20047;-53
2023/07/10 02:21:14;;;;;;;5.82;2.70;;;21.70;93.70;;;;;;4249088;27;20053;-53
2023/07/10 02:23:16;;;;;;;5.35;2.53;;;21.60;93.80;;;;;;4249968;27;20449;-54
2023/07/10 02:25:19;;;;;;;8.25;2.83;;;21.60;94.00;;;;;;4250105;27;20063;-53
2023/07/10 02:27:22;;;;;;;8.48;2.92;;;21.70;93.80;;;;;;4249694;27;20085;-53
2023/07/10 02:29:24;;;;;;;6.20;2.63;;;21.60;93.90;;;;;;4248926;27;20066;-54
2023/07/10 02:31:27;;;;;;;5.40;2.58;;;21.60;93.90;;;;;;4249623;27;20144;-53
2023/07/10 02:33:29;;;;;;;7.05;2.40;;;21.60;94.00;;;;;;4249838;27;20112;-53
2023/07/10 02:35:31;;;;;;;6.00;2.45;;;21.60;94.40;;;;;;4249578;27;20526;-50
2023/07/10 02:37:33;;;;;;;6.13;2.58;;;21.60;94.20;;;;;;4249621;27;20065;-50
2023/07/10 02:39:35;;;;;;;4.95;3.05;;;21.60;94.30;;;;;;4248698;27;20072;-54
2023/07/10 02:41:37;;;;;;;5.75;3.05;;;21.50;94.30;;;;;;4249443;27;20515;-55
2023/07/10 02:43:41;;;;;;;7.22;2.65;;;21.50;94.40;;;;;;4249266;27;20434;-55
2023/07/10 02:45:44;;;;;;;5.50;2.60;;;21.50;94.60;;;;;;4231322;28;20055;-55
2023/07/10 02:47:46;;;;;;;6.63;2.80;;;21.50;94.70;;;;;;4249222;27;20047;-55
2023/07/10 02:49:48;;;;;;;5.32;3.20;;;21.40;94.70;;;;;;4248425;27;20100;-54
2023/07/10 02:51:50;;;;;;;4.78;2.67;;;21.40;94.90;;;;;;4249348;27;20043;-55
2023/07/10 02:53:53;;;;;;;5.68;2.83;;;21.50;95.00;;;;;;4249477;27;20049;-55
2023/07/10 02:55:55;;;;;;;6.93;2.90;;;21.40;95.10;;;;;;4249500;27;20470;-54
2023/07/10 02:57:56;;;;;;;7.05;2.78;;;21.50;95.10;;;;;;4248750;27;20095;-54
2023/07/10 03:00:00;;;;;;;5.22;2.70;;;21.40;95.30;;;;;;4248132;27;20047;-55
2023/07/10 03:02:02;;;;;;;5.03;2.72;;;21.40;95.30;;;;;;4249066;27;20047;-54
2023/07/10 03:04:05;;;;;;;8.30;3.22;;;21.40;95.60;;;;;;4249311;27;20051;-54
2023/07/10 03:06:07;;;;;;;7.57;2.40;;;21.30;95.50;;;;;;4249181;27;20089;-49
2023/07/10 03:08:10;;;;;;;4.30;2.63;;;21.30;95.50;;;;;;4230712;28;20043;-49
2023/07/10 03:10:12;;;;;;;7.43;2.67;;;21.30;95.50;;;;;;4231006;28;20039;-49
2023/07/10 03:12:14;;;;;;;3.97;2.63;;;21.30;95.60;;;;;;4231652;28;20043;-50
2023/07/10 03:14:16;;;;;;;6.50;3.08;;;21.30;95.60;;;;;;4232017;28;20391;-50
2023/07/10 03:16:19;;;;;;;5.40;2.55;;;21.30;95.60;;;;;;4231948;28;20127;-50
2023/07/10 03:18:22;;;;;;;6.53;2.67;;;21.20;95.70;;;;;;4232249;28;20071;-50
2023/07/10 03:20:24;;;;;;;4.78;2.53;;;21.20;95.70;;;;;;4230909;28;20050;-51
2023/07/10 03:22:26;;;;;;;4.93;2.35;;;21.10;95.80;;;;;;4231989;28;20127;-55
2023/07/10 03:24:28;;;;;;;3.67;2.00;;;21.10;95.80;;;;;;4230483;28;20051;-54
2023/07/10 03:26:30;;;;;;;5.25;2.28;;;21.10;95.70;;;;;;4231256;28;20076;-54
2023/07/10 03:28:35;;;;;;;5.72;2.30;;;21.20;95.70;;;;;;4231663;28;20126;-55
2023/07/10 03:30:40;;;;;;;3.72;2.40;;;21.20;95.70;;;;;;4230621;28;20502;-54
2023/07/10 03:32:43;;;;;;;6.45;2.35;;;21.10;95.70;;;;;;4231881;28;20131;-55
2023/07/10 03:34:45;;;;;;;4.82;2.20;;;21.10;95.70;;;;;;4231544;28;20043;-55
2023/07/10 03:36:47;;;;;;;4.25;2.25;;;21.00;95.80;;;;;;4231556;28;20048;-55
2023/07/10 03:38:49;;;;;;;7.03;2.42;;;21.00;95.80;;;;;;4231787;28;20495;-55
2023/07/10 03:40:52;;;;;;;7.68;2.28;;;21.00;95.80;;;;;;4230087;28;20070;-54
2023/07/10 03:42:54;;;;;;;5.30;2.67;;;21.00;95.80;;;;;;4231668;28;20039;-55
2023/07/10 03:44:56;;;;;;;5.90;2.58;;;21.00;95.90;;;;;;4231577;28;20123;-55
2023/07/10 03:46:58;;;;;;;6.28;3.03;;;21.00;96.20;;;;;;4231789;28;20058;-55
2023/07/10 03:49:02;;;;;;;4.68;2.45;;;21.00;95.90;;;;;;4231276;28;20429;-55
2023/07/10 03:51:04;;;;;;;4.35;2.53;;;21.00;96.00;;;;;;4230482;28;20122;-55
2023/07/10 03:53:06;;;;;;;7.25;3.00;;;21.00;96.10;;;;;;4231267;28;20075;-51
2023/07/10 03:55:08;;;;;;;4.47;2.65;;;21.00;96.10;;;;;;4231136;28;20076;-52
2023/07/10 03:57:10;;;;;;;7.53;2.92;;;21.00;96.30;;;;;;4231201;28;20057;-51
2023/07/10 03:59:12;;;;;;;9.45;3.25;;;21.10;96.40;;;;;;4231311;28;20082;-51
2023/07/10 04:01:15;;;;;;;5.32;2.92;;;21.10;96.40;;;;;;4229629;28;20067;-52
2023/07/10 04:03:21;;;;;;;8.43;3.30;;;21.10;96.40;;;;;;4231382;28;20054;-51
2023/07/10 04:05:24;;;;;;;6.03;2.90;;;21.10;96.40;;;;;;4231316;28;20054;-51
2023/07/10 04:07:26;;;;;;;6.05;3.20;;;21.10;96.50;;;;;;4242172;27;20043;-52
2023/07/10 04:09:28;;;;;;;6.57;2.72;;;21.10;96.40;;;;;;4247505;27;20421;-53
2023/07/10 04:11:31;;;;;;;5.25;2.83;;;21.10;96.50;;;;;;4246964;27;20039;-51
2023/07/10 04:13:33;;;;;;;6.38;3.10;;;21.10;96.50;;;;;;4248232;27;20432;-50
2023/07/10 04:15:35;;;;;;;7.30;2.83;;;21.10;96.60;;;;;;4248221;27;20095;-50
2023/07/10 04:17:37;;;;;;;6.43;2.70;;;21.10;96.60;;;;;;4248243;27;20100;-51
2023/07/10 04:19:39;;;;;;;9.85;2.70;;;21.10;96.70;;;;;;4248149;27;20047;-50
2023/07/10 04:21:43;;;;;;;6.50;3.25;;;21.20;96.70;;;;;;4247313;27;20070;-52
2023/07/10 04:23:45;;;;;;;8.35;4.85;;;21.20;96.60;;;;;;4247585;27;20433;-53
2023/07/10 04:25:48;;;;;;;9.85;5.80;;;21.20;96.40;;;;;;4247931;27;20043;-52
2023/07/10 04:27:50;;;;;;;7.53;4.55;;;21.30;96.40;;;;;;4247752;27;20122;-53
2023/07/10 04:29:52;;;;;;;9.90;5.10;;;21.20;96.70;;;;;;4246742;27;20134;-53
2023/07/10 04:31:54;;;;;;;9.90;5.50;;;21.20;96.90;;;;;;4247695;27;20438;-51
2023/07/10 04:33:57;;;;;;;10.57;5.70;;;21.20;96.70;;;;;;4247938;27;20051;-51
2023/07/10 04:35:59;;;;;;;7.63;5.45;;;21.20;96.60;;;;;;4247976;27;20048;-50
2023/07/10 04:38:02;;;;;;;7.95;4.00;;;21.20;96.80;;;;;;4247308;27;20063;-52
2023/07/10 04:40:06;;;;;;;8.95;3.55;;;21.30;96.60;;;;;;4246979;27;20443;-53
2023/07/10 04:42:08;;;;;;;7.20;2.97;;;21.30;96.30;;;;;;4247669;27;20066;-53
2023/07/10 04:44:10;;;;;;;7.55;2.78;;;21.40;96.20;;;;;;4247635;27;20046;-53
2023/07/10 04:46:14;;;;;;;7.22;3.10;;;21.40;96.30;;;;;;4247474;27;20058;-52
2023/07/10 04:48:16;;;;;;;6.47;2.83;;;21.40;96.30;;;;;;4247854;27;20039;-53
2023/07/10 04:50:18;;;;;;;9.45;2.92;;;21.40;96.20;;;;;;4246743;27;20051;-51
2023/07/10 04:52:20;;;;;;;7.50;2.70;;;21.40;96.20;;;;;;4229380;28;20092;-51
2023/07/10 04:54:23;;;;;;;8.90;3.38;;;21.50;95.90;;;;;;4247546;27;20049;-56
2023/07/10 04:56:26;;;;;;;5.55;2.70;;;21.40;96.20;;;;;;4247600;27;20501;-51
2023/07/10 04:58:31;;;;;;;8.35;3.08;;;21.40;96.40;;;;;;4247678;27;20052;-51
2023/07/10 05:00:34;;;;;;;4.68;2.70;;;21.40;96.40;;;;;;4246646;28;20047;-51
2023/07/10 05:02:35;;;;;;;7.05;2.80;;;21.40;96.50;;;;;;4247575;28;20050;-50
2023/07/10 05:04:38;;;;;;;7.65;2.70;;;21.40;96.40;;;;;;4229393;28;20131;-51
2023/07/10 05:06:40;;;;;;;5.53;3.10;;;21.50;96.30;;;;;;4247516;28;20066;-51
2023/07/10 05:08:42;;;;;;;8.48;3.47;;;21.50;96.20;;;;;;4246868;28;20069;-53
2023/07/10 05:10:45;;;;;;;7.07;2.90;;;21.50;96.20;;;;;;4246214;28;20047;-50
2023/07/10 05:12:48;;;;;;;5.88;2.50;;;21.60;96.10;;;;;;4248650;27;20039;-52
2023/07/10 05:14:50;;;;;;;6.65;2.72;;;21.60;96.20;;;;;;4251232;27;20088;-51
2023/07/10 05:16:52;;;;;;;6.22;3.03;;;21.60;96.40;;;;;;4250928;27;20130;-54
2023/07/10 05:18:56;;;;;;;6.20;3.20;;;21.60;96.70;;;;;;4251049;27;20051;-52
2023/07/10 05:20:59;;;;;;;5.65;2.65;;;21.60;96.40;;;;;;4249519;27;20108;-52
2023/07/10 05:23:01;;;;;;;6.50;2.92;;;21.70;96.20;;;;;;4250485;27;20070;-51
2023/07/10 05:25:04;;;;;;;4.65;2.90;;;21.70;96.50;;;;;;4250709;27;20057;-51
2023/07/10 05:27:07;;;;;;;6.10;3.13;;;21.70;96.40;;;;;;4250718;27;20047;-52
2023/07/10 05:29:09;;;;;;;6.78;2.85;;;21.70;96.10;;;;;;4250500;27;20115;-50
2023/07/10 05:31:12;;;;;;;6.90;2.67;;;21.70;96.10;;;;;;4249792;27;20448;-56
2023/07/10 05:33:14;;;;;;;8.88;2.85;;;21.70;96.00;;;;;;4250585;27;20118;-55
2023/07/10 05:35:16;;;;;;;5.15;2.60;;;21.80;95.90;;;;;;4250598;27;20047;-51
2023/07/10 05:37:18;;;;;;;5.53;2.17;;;21.90;95.80;;;;;;4250157;27;20062;-54
2023/07/10 05:39:22;;;;;;;7.13;2.30;;;21.80;94.60;;;;;;4250392;27;20146;-55
2023/07/10 05:41:24;;;;;;;5.78;2.42;;;21.80;94.70;;;;;;4249497;27;20049;-54
2023/07/10 05:43:29;;;;;;;6.22;2.55;;;21.90;94.10;;;;;;4250694;27;20073;-54
2023/07/10 05:45:31;;;;;;;7.97;2.42;;;22.00;94.20;;;;;;4250587;27;20418;-54
2023/07/10 05:47:34;;;;;;;4.75;2.05;;;22.00;93.80;;;;;;4250496;27;20146;-54
2023/07/10 05:49:36;;;;;;;8.15;2.42;;;22.00;93.70;;;;;;4250450;27;20047;-54
2023/07/10 05:51:38;;;;;;;8.63;2.35;;;22.10;93.60;;;;;;4248984;27;20071;-54
2023/07/10 05:53:40;;;;;;;4.55;2.00;;;22.10;93.90;;;;;;4250144;27;20043;-54
2023/07/10 05:55:46;;;;;;;7.07;2.50;;;22.00;93.80;;;;;;4250087;27;20043;-54
2023/07/10 05:57:48;;;;;;;5.22;2.08;;;22.10;93.90;;;;;;4250351;27;20431;-55
2023/07/10 05:59:51;;;;;;;4.95;2.20;;;22.20;93.90;;;;;;4250039;27;20119;-55
2023/07/10 06:01:53;;;;;;;6.38;2.10;;;22.10;94.10;;;;;;4230900;28;20706;-52
2023/07/10 06:03:56;;;;;;;8.13;2.53;;;22.20;93.90;;;;;;4250284;27;20516;-52
2023/07/10 06:06:00;;;;;;;7.25;2.20;;;22.10;93.90;;;;;;4250124;27;20047;-51
2023/07/10 06:08:02;;;;;;;5.35;2.30;;;22.20;93.80;;;;;;4249810;27;20405;-52
2023/07/10 06:10:05;;;;;;;7.63;2.47;;;22.20;93.90;;;;;;4249324;27;20489;-51
2023/07/10 06:12:08;;;;;;;7.45;2.17;;;22.20;94.00;;;;;;4250149;27;20081;-52
2023/07/10 06:14:10;;;;;;;7.82;2.72;;;22.20;93.80;;;;;;4249889;27;20060;-55
2023/07/10 06:16:14;;;;;;;5.93;2.38;;;22.30;93.80;;;;;;4231718;28;20040;-54
2023/07/10 06:18:17;;;;;;;9.82;2.05;;;22.20;93.40;;;;;;4250025;27;20053;-54
2023/07/10 06:20:19;;;;;;;6.05;2.50;;;22.30;93.40;;;;;;4248728;27;20051;-54
2023/07/10 06:22:21;;;;;;;9.88;2.47;;;22.40;93.30;;;;;;4249704;27;20042;-54
2023/07/10 06:24:23;;;;;;;11.63;2.88;;;22.40;93.20;;;;;;4249216;27;20058;-55
2023/07/10 06:26:25;;;;;;;7.93;2.30;;;22.40;93.20;;;;;;4250009;27;20508;-54
2023/07/10 06:28:30;;;;;;;8.13;2.45;;;22.30;92.70;;;;;;4249743;27;20047;-53
2023/07/10 06:30:32;;;;;;;7.18;2.20;;;22.30;92.90;;;;;;4248889;27;20126;-54
2023/07/10 06:32:36;;;;;;;6.72;2.10;;;22.30;92.80;;;;;;4249547;27;20410;-54
2023/07/10 06:34:38;;;;;;;;;;;22.30;92.70;;;;;;4250033;27;20428;-52
2023/07/10 06:36:40;;;;;;;7.35;2.40;;;22.30;92.60;;;;;;4249517;27;19926;-52
2023/07/10 06:38:43;;;;;;;7.60;2.13;;;22.30;92.80;;;;;;4231441;28;20137;-54
2023/07/10 06:40:46;;;;;;;5.22;2.33;;;22.40;92.70;;;;;;4248555;27;20071;-51
2023/07/10 06:42:49;;;;;;;12.63;2.35;;;22.40;92.60;;;;;;4249546;27;20126;-54
2023/07/10 06:44:51;;;;;;;9.70;3.00;;;22.40;92.70;;;;;;4249381;27;20122;-55
2023/07/10 06:46:53;;;;;;;6.53;2.25;;;22.50;92.70;;;;;;4249662;27;20044;-52
2023/07/10 06:48:56;;;;;;;7.10;2.90;;;22.60;92.70;;;;;;4249239;27;20131;-53
2023/07/10 06:50:58;;;;;;;10.85;3.35;;;22.60;92.60;;;;;;4248559;27;20054;-52
2023/07/10 06:53:00;;;;;;;6.80;2.83;;;22.70;92.60;;;;;;4249273;27;20178;-52
2023/07/10 06:55:22;;;;;;;11.27;2.80;;;22.80;92.40;;;;;;4249311;27;20122;-52
2023/07/10 06:57:25;;;;;;;10.00;2.72;;;22.90;92.50;;;;;;4231072;28;20073;-52
2023/07/10 06:59:27;;;;;;;9.30;3.08;;;22.90;92.50;;;;;;4249201;27;20071;-52
2023/07/10 07:01:29;;;;;;;9.73;2.60;;;23.00;92.30;;;;;;4248438;27;20547;-52
2023/07/10 07:03:31;;;;;;;15.95;3.13;;;23.00;92.20;;;;;;4249003;27;20053;-52
2023/07/10 07:05:35;;;;;;;10.80;3.30;;;23.10;92.20;;;;;;4249160;27;20413;-52
2023/07/10 07:07:38;;;;;;;10.65;3.22;;;23.30;91.90;;;;;;4249247;27;20049;-55
2023/07/10 07:09:40;;;;;;;6.95;2.80;;;23.40;91.90;;;;;;4248968;27;20472;-52
2023/07/10 07:11:42;;;;;;;9.75;2.67;;;23.40;92.00;;;;;;4248045;27;20047;-52
2023/07/10 07:13:44;;;;;;;6.60;2.95;;;23.50;92.10;;;;;;4249059;27;20066;-55
2023/07/10 07:15:49;;;;;;;6.63;2.60;;;23.70;91.90;;;;;;4230810;27;20043;-55
2023/07/10 07:17:51;;;;;;;10.45;3.00;;;23.90;91.80;;;;;;4231880;28;20055;-55
2023/07/10 07:19:53;;;;;;;12.38;2.97;;;24.00;91.20;;;;;;4231914;28;20093;-55
2023/07/10 07:21:58;;;;;;;12.68;2.70;;;24.20;91.10;;;;;;4230704;28;20123;-51
2023/07/10 07:24:00;;;;;;;9.25;2.65;;;24.40;90.90;;;;;;4231800;28;20050;-52
2023/07/10 07:26:02;;;;;;;7.65;2.60;;;24.60;90.80;;;;;;4231684;28;20452;-55
2023/07/10 07:28:05;;;;;;;8.40;2.28;;;24.60;90.30;;;;;;4232042;28;20044;-54
2023/07/10 07:30:09;;;;;;;8.95;2.28;;;24.70;90.20;;;;;;4231543;28;20406;-54
2023/07/10 07:32:11;;;;;;;12.40;3.35;;;24.80;89.90;;;;;;4229797;28;20118;-52
2023/07/10 07:34:13;;;;;;;7.93;2.42;;;24.90;89.90;;;;;;4213559;28;20040;-51
2023/07/10 07:36:15;;;;;;;10.00;2.40;;;25.00;89.30;;;;;;4230760;28;20101;-52
2023/07/10 07:38:21;;;;;;;13.10;2.50;;;25.10;89.20;;;;;;4231581;28;20062;-52
2023/07/10 07:40:24;;;;;;;6.22;2.33;;;25.20;88.90;;;;;;4230821;28;20054;-51
2023/07/10 07:42:27;;;;;;;8.27;2.45;;;25.30;88.30;;;;;;4231677;28;20382;-52
2023/07/10 07:44:34;;;;;;;9.73;2.65;;;25.30;87.90;;;;;;4231838;28;20093;-53
2023/07/10 07:46:41;;;;;;;11.05;2.97;;;25.30;88.10;;;;;;4232110;28;20463;-52
2023/07/10 07:48:43;;;;;;;13.52;2.85;;;25.40;88.00;;;;;;4231668;28;20044;-51
2023/07/10 07:50:58;;;;;;;8.23;2.50;;;25.40;87.50;;;;;;4239329;27;20125;-52
2023/07/10 07:53:00;;;;;;;10.57;2.97;;;25.50;87.10;;;;;;4247989;27;20146;-53
2023/07/10 07:55:04;;;;;;;7.65;2.45;;;25.60;87.10;;;;;;4248355;27;20049;-51
2023/07/10 07:57:07;;;;;;;7.57;2.67;;;25.60;86.70;;;;;;4248203;27;20220;-52
2023/07/10 07:59:09;;;;;;;11.98;3.00;;;25.70;87.80;;;;;;4248322;27;20047;-52
2023/07/10 08:01:11;;;;;;;8.95;2.40;;;25.80;87.00;;;;;;4246835;27;20043;-51
2023/07/10 08:03:13;;;;;;;11.98;2.65;;;25.90;85.70;;;;;;4248085;27;20050;-52
2023/07/10 08:05:16;;;;;;;8.65;2.40;;;25.80;83.90;;;;;;4248187;27;20107;-51
2023/07/10 08:07:35;;;;;;;8.82;2.38;;;25.80;85.10;;;;;;4248324;27;20118;-55
2023/07/10 08:09:37;;;;;;;8.73;2.00;;;25.90;84.20;;;;;;4248197;27;20420;-54
2023/07/10 08:11:41;;;;;;;7.80;2.13;;;25.80;82.70;;;;;;4246908;27;20055;-54
2023/07/10 08:13:43;;;;;;;8.30;2.75;;;25.90;83.10;;;;;;4248284;27;20047;-54
2023/07/10 08:15:46;;;;;;;6.22;2.22;;;25.90;82.80;;;;;;4247610;27;20077;-53
2023/07/10 08:17:48;;;;;;;7.35;2.10;;;26.00;83.40;;;;;;4229613;28;20502;-54
2023/07/10 08:19:50;;;;;;;7.70;2.30;;;26.00;83.00;;;;;;4247993;27;20522;-54
2023/07/10 08:21:57;;;;;;;16.58;2.13;;;26.10;82.00;;;;;;4246747;27;20120;-53
2023/07/10 08:23:59;;;;;;;9.30;2.00;;;26.10;80.80;;;;;;4247506;27;20051;-54
2023/07/10 08:26:02;;;;;;;6.28;2.03;;;26.00;78.20;;;;;;4247983;27;20498;-53
2023/07/10 08:28:06;;;;;;;9.57;2.13;;;26.10;79.60;;;;;;4247967;27;20147;-54
2023/07/10 08:30:09;;;;;;;6.88;1.83;;;26.20;79.40;;;;;;4247350;27;20430;-54
2023/07/10 08:32:11;;;;;;;6.30;2.28;;;26.20;78.50;;;;;;4246876;27;20054;-54
2023/07/10 08:34:13;;;;;;;6.57;1.65;;;26.20;77.90;;;;;;4247821;27;20126;-54
2023/07/10 08:36:15;;;;;;;8.63;2.65;;;26.30;78.10;;;;;;4247798;27;20121;-54
2023/07/10 08:38:17;;;;;;;6.85;1.95;;;26.30;79.50;;;;;;4247604;27;20047;-55
2023/07/10 08:40:26;;;;;;;10.98;2.15;;;26.40;79.60;;;;;;4247781;27;20101;-52
2023/07/10 08:42:31;;;;;;;7.20;1.58;;;26.30;76.50;;;;;;4246567;27;20043;-52
2023/07/10 08:44:37;;;;;;;8.18;1.92;;;26.40;76.90;;;;;;4247189;27;20047;-52
2023/07/10 08:46:39;;;;;;;6.47;2.08;;;26.50;76.70;;;;;;4247394;27;20451;-54
2023/07/10 08:48:48;;;;;;;5.75;2.03;;;26.50;76.80;;;;;;4247176;27;20047;-54
2023/07/10 08:50:50;;;;;;;5.45;1.50;;;26.40;77.80;;;;;;4246516;27;20061;-54
2023/07/10 08:53:02;;;;;;;8.25;2.50;;;26.40;77.90;;;;;;4229303;28;20039;-54
2023/07/10 08:55:10;;;;;;;6.25;1.83;;;26.60;78.60;;;;;;4247592;27;20071;-54
2023/07/10 08:57:22;;;;;;;12.77;2.30;;;26.60;78.40;;;;;;4247568;28;20454;-55
2023/07/10 08:59:42;;;;;;;4.55;1.40;;;26.60;78.50;;;;;;4247163;27;20074;-54
2023/07/10 09:01:46;;;;;;;8.40;1.83;;;26.60;76.60;;;;;;4228139;28;20040;-52
2023/07/10 09:03:51;;;;;;;11.77;1.77;;;26.60;77.50;;;;;;4247536;28;20043;-53
2023/07/10 09:05:53;;;;;;;12.70;1.65;;;26.60;76.90;;;;;;4247318;28;20043;-54
2023/07/10 09:07:59;;;;;;;7.80;1.85;;;26.70;76.80;;;;;;4247347;28;20043;-53
2023/07/10 09:10:07;;;;;;;9.63;2.17;;;26.80;76.70;;;;;;4247388;28;20101;-51
2023/07/10 09:12:15;;;;;;;7.43;2.08;;;26.90;77.40;;;;;;4246136;28;20476;-53
2023/07/10 09:14:29;;;;;;;12.77;2.65;;;26.90;76.30;;;;;;4247046;28;20053;-51
2023/07/10 09:16:32;;;;;;;7.85;2.00;;;27.00;75.70;;;;;;4247396;28;20302;-52
2023/07/10 09:18:41;;;;;;;8.35;2.60;;;27.10;76.10;;;;;;4247361;28;20444;-53
2023/07/10 09:20:43;;;;;;;5.70;1.48;;;27.20;75.60;;;;;;4247057;28;20047;-51
2023/07/10 09:22:50;;;;;;;4.03;1.42;;;27.00;73.70;;;;;;4246518;28;20043;-52
2023/07/10 09:24:55;;;;;;;4.97;1.35;;;26.90;71.50;;;;;;4246925;28;20043;-51
2023/07/10 09:26:57;;;;;;;7.43;1.80;;;26.80;70.80;;;;;;4247112;28;20122;-51
2023/07/10 09:29:17;;;;;;;10.18;1.73;;;26.80;72.30;;;;;;4246564;28;20074;-52
2023/07/10 09:31:35;;;;;;;4.00;1.30;;;26.90;71.90;;;;;;4246227;28;20230;-58
2023/07/10 09:33:42;;;;;;;6.63;1.83;;;27.00;69.60;;;;;;4247075;28;20074;-54
2023/07/10 09:35:44;;;;;;;8.05;2.05;;;27.00;70.00;;;;;;4228831;28;20047;-53
2023/07/10 09:37:50;;;;;;;7.78;2.20;;;27.00;72.40;;;;;;4247275;28;20051;-50
2023/07/10 09:39:52;;;;;;;6.57;1.92;;;27.10;73.20;;;;;;4229059;28;20040;-51
2023/07/10 09:41:57;;;;;;;8.43;1.88;;;27.10;73.40;;;;;;4245786;28;20081;-52
2023/07/10 09:44:04;;;;;;;11.10;2.22;;;27.20;73.90;;;;;;4246741;28;20127;-52
2023/07/10 09:46:11;;;;;;;7.47;1.92;;;27.20;73.00;;;;;;4247050;27;20130;-53
2023/07/10 09:48:19;;;;;;;8.85;2.05;;;27.30;72.50;;;;;;4246714;28;20157;-53
2023/07/10 09:50:23;;;;;;;5.30;1.70;;;27.30;73.30;;;;;;4246878;28;20085;-53
2023/07/10 09:52:29;;;;;;;7.45;1.80;;;27.30;73.50;;;;;;4246057;28;20070;-53
2023/07/10 09:54:35;;;;;;;7.40;1.90;;;27.30;73.10;;;;;;4246862;27;20409;-53
2023/07/10 09:56:38;;;;;;;7.53;2.47;;;27.50;73.80;;;;;;4246858;28;20072;-52
2023/07/10 09:58:46;;;;;;;7.63;1.80;;;27.60;73.40;;;;;;4247133;27;20402;-53
2023/07/10 10:00:51;;;;;;;7.97;1.90;;;27.70;71.50;;;;;;4249989;27;20051;-52
2023/07/10 10:02:56;;;;;;;4.72;1.42;;;27.60;70.60;;;;;;4249642;27;20077;-53
2023/07/10 10:05:08;;;;;;;6.63;1.85;;;27.70;70.90;;;;;;4249844;27;20070;-52
2023/07/10 10:07:14;;;;;;;4.22;1.63;;;27.70;71.10;;;;;;4249821;27;20043;-54
2023/07/10 10:09:21;;;;;;;4.68;1.90;;;27.80;69.90;;;;;;4250148;27;20579;-54
2023/07/10 10:11:35;;;;;;;5.80;2.38;;;27.80;69.60;;;;;;4248742;27;20065;-52
2023/07/10 10:13:40;;;;;;;5.50;2.78;;;27.70;70.00;;;;;;4249639;27;20043;-51
2023/07/10 10:15:47;;;;;;;14.75;2.33;;;27.90;70.90;;;;;;4249818;27;20122;-54
2023/07/10 10:17:50;;;;;;;3.45;1.58;;;27.90;70.80;;;;;;4231798;28;20047;-54
2023/07/10 10:19:56;;;;;;;4.07;1.52;;;27.90;70.30;;;;;;4249809;27;20047;-53
2023/07/10 10:21:58;;;;;;;7.25;2.10;;;27.90;69.70;;;;;;4248743;27;20043;-52
2023/07/10 10:24:07;;;;;;;6.60;1.70;;;27.90;70.50;;;;;;4249599;27;20055;-50
2023/07/10 10:26:46;;;;;;;5.72;1.75;;;27.90;70.70;;;;;;4249544;27;20092;-51
2023/07/10 10:28:58;;;;;;;8.07;1.60;;;28.00;69.30;;;;;;4249635;27;20047;-52
2023/07/10 10:31:06;;;;;;;4.32;1.80;;;27.90;69.50;;;;;;4249164;27;20404;-51
2023/07/10 10:33:15;;;;;;;4.57;1.35;;;27.90;68.70;;;;;;4249282;27;20050;-50
2023/07/10 10:35:27;;;;;;;5.97;1.50;;;27.80;69.30;;;;;;4249777;27;20047;-49
2023/07/10 10:37:51;;;;;;;5.75;2.03;;;27.90;70.00;;;;;;4249470;27;20055;-49
2023/07/10 10:39:59;;;;;;;5.63;1.52;;;27.90;70.20;;;;;;4249332;27;20891;-52
2023/07/10 10:42:09;;;;;;;7.30;2.22;;;28.00;70.10;;;;;;4247846;27;20534;-51
2023/07/10 10:44:26;;;;;;;6.18;1.92;;;27.90;69.20;;;;;;4249158;27;20461;-50